Weather at Jeh Airport

Public forecast

Using degrees Celsius for public forecast. Weather courtesy of forecast.io.

Closest aviation weather report (METAR) to Jeh Airport

Closest report is Bucholz Army Air Field, 100.8 nm (186.6 km) NW.

2024/05/29 16:40 (retrieved 21 minutes ago)

PKWA 291640Z AUTO 07011KT 10SM SCT015 SCT023 SCT041 28/25 A2983 RMK AO2 T02780251

Closest aviation forecast (TAF) to Jeh Airport

Closest forecast is Bucholz Army Air Field, 100.8 nm (186.6 km) NW.

2024/05/29 12:24 (retrieved 5 hours ago)

TAF PKWA 291120Z 2912/3012 09010KT P6SM VCSH FEW015 SCT030 BKN130